createdAt,value
2019-01-26T00:00:46.066Z,113.93
2019-01-26T00:03:27.267Z,93.93
2019-01-26T00:06:08.610Z,113.60
2019-01-26T00:08:49.607Z,109.60
2019-01-26T00:11:30.496Z,107.83
2019-01-26T00:14:11.358Z,115.23
2019-01-26T00:16:52.579Z,111.00
2019-01-26T00:19:33.351Z,103.57
2019-01-26T00:22:14.181Z,105.20
2019-01-26T00:24:55.664Z,106.77
2019-01-26T00:27:36.638Z,114.30
2019-01-26T00:30:17.512Z,120.90
2019-01-26T00:32:58.452Z,109.80
2019-01-26T00:35:39.799Z,118.90
2019-01-26T00:38:21.682Z,103.80
2019-01-26T00:41:02.265Z,106.77
2019-01-26T00:43:43.315Z,100.80
2019-01-26T00:46:28.412Z,126.30
2019-01-26T00:49:07.026Z,113.37
2019-01-26T00:55:06.918Z,94.77
2019-01-26T00:57:48.396Z,104.37
2019-01-26T01:00:29.788Z,118.30
2019-01-26T01:03:11.160Z,100.10
2019-01-26T01:05:51.991Z,102.77
2019-01-26T01:08:33.158Z,106.60
2019-01-26T01:11:13.758Z,100.27
2019-01-26T01:13:54.624Z,112.40
2019-01-26T01:16:35.941Z,106.53
2019-01-26T01:19:18.029Z,102.60
2019-01-26T01:21:59.470Z,106.60
2019-01-26T01:24:41.613Z,92.23
2019-01-26T01:27:22.608Z,100.43
2019-01-26T01:30:03.679Z,118.03
2019-01-26T01:32:45.063Z,121.03
2019-01-26T01:35:25.710Z,98.40
2019-01-26T01:38:06.851Z,114.70
2019-01-26T01:40:47.714Z,114.03
2019-01-26T01:43:29.679Z,114.07
2019-01-26T01:46:10.933Z,113.40
2019-01-26T01:48:51.732Z,102.07
2019-01-26T01:51:32.997Z,110.27
2019-01-26T01:54:15.391Z,109.60
2019-01-26T01:56:56.423Z,118.80
2019-01-26T01:59:37.255Z,106.67
2019-01-26T02:02:18.025Z,96.17
2019-01-26T02:04:58.766Z,94.30
2019-01-26T02:07:39.442Z,94.80
2019-01-26T02:10:20.411Z,100.70
2019-01-26T02:13:00.827Z,98.87
2019-01-26T02:15:41.697Z,93.10
2019-01-26T02:18:22.409Z,108.27
2019-01-26T02:21:03.593Z,99.93
2019-01-26T02:23:44.078Z,106.80
2019-01-26T02:26:25.145Z,107.00
2019-01-26T02:29:05.655Z,93.63
2019-01-26T02:31:46.565Z,94.97
2019-01-26T02:34:26.080Z,86.40
2019-01-26T02:37:06.999Z,89.70
2019-01-26T02:39:46.294Z,82.67
2019-01-26T02:42:15.882Z,90.10
2019-01-26T02:45:04.604Z,94.43
2019-01-26T02:47:34.077Z,78.83
2019-01-26T02:52:59.739Z,80.17
2019-01-26T02:55:40.469Z,93.03
2019-01-26T02:58:20.995Z,88.40
2019-01-26T03:01:01.841Z,90.10
2019-01-26T03:03:43.323Z,93.23
2019-01-26T03:06:24.515Z,82.50
2019-01-26T03:09:05.861Z,87.77
2019-01-26T03:11:46.387Z,76.53
2019-01-26T03:14:25.906Z,101.90
2019-01-26T03:17:06.659Z,83.23
2019-01-26T03:19:47.906Z,89.20
2019-01-26T03:22:29.266Z,85.23
2019-01-26T03:25:10.106Z,89.20
2019-01-26T03:27:50.594Z,92.00
2019-01-26T03:30:31.692Z,98.57
2019-01-26T03:33:12.821Z,90.97
2019-01-26T03:35:54.256Z,81.97
2019-01-26T03:38:34.919Z,86.30
2019-01-26T03:41:16.288Z,84.73
2019-01-26T03:43:56.780Z,85.87
2019-01-26T03:46:38.192Z,83.37
2019-01-26T03:49:07.554Z,65.40
2019-01-26T03:51:55.794Z,78.53
2019-01-26T03:54:37.084Z,79.27
2019-01-26T03:57:17.567Z,72.50
2019-01-26T03:59:58.856Z,79.80
2019-01-26T04:02:40.239Z,69.30
2019-01-26T04:05:20.857Z,81.10
2019-01-26T04:08:01.545Z,75.97
2019-01-26T04:10:42.284Z,80.00
2019-01-26T04:13:23.348Z,75.50
2019-01-26T04:16:04.017Z,75.73
2019-01-26T04:18:44.944Z,70.30
2019-01-26T04:21:26.326Z,73.47
2019-01-26T04:24:07.751Z,81.33
2019-01-26T04:26:48.969Z,69.50
2019-01-26T04:29:29.730Z,68.93
2019-01-26T04:32:11.292Z,62.07
2019-01-26T04:34:51.677Z,69.33
2019-01-26T04:37:32.503Z,68.43
2019-01-26T04:40:13.016Z,59.57
2019-01-26T04:42:54.107Z,65.40
2019-01-26T04:45:35.018Z,64.83
2019-01-26T04:48:16.115Z,61.63
2019-01-26T04:50:56.599Z,71.40
2019-01-26T04:53:37.678Z,60.17
2019-01-26T04:56:18.214Z,55.37
2019-01-26T04:58:59.098Z,58.80
2019-01-26T05:01:39.578Z,63.87
2019-01-26T05:04:21.044Z,53.80
2019-01-26T05:07:01.779Z,52.83
2019-01-26T05:09:42.565Z,54.60
2019-01-26T05:12:23.391Z,56.13
2019-01-26T05:15:04.244Z,55.43
2019-01-26T05:17:45.466Z,52.97
2019-01-26T05:20:26.201Z,57.70
2019-01-26T05:23:07.059Z,50.30
2019-01-26T05:25:47.859Z,54.53
2019-01-26T05:28:28.249Z,47.93
2019-01-26T05:31:08.912Z,48.70
2019-01-26T05:33:50.182Z,53.80
2019-01-26T05:36:31.547Z,49.87
2019-01-26T05:39:12.898Z,49.60
2019-01-26T05:41:54.319Z,41.23
2019-01-26T05:44:35.701Z,48.63
2019-01-26T05:47:16.565Z,52.77
2019-01-26T05:49:57.077Z,48.30
2019-01-26T05:52:37.981Z,48.43
2019-01-26T05:55:18.657Z,47.70
2019-01-26T05:57:57.907Z,47.13
2019-01-26T06:00:39.110Z,46.37
2019-01-26T06:03:19.611Z,51.90
2019-01-26T06:06:00.542Z,48.57
2019-01-26T06:08:41.829Z,46.87
2019-01-26T06:11:22.803Z,48.67
2019-01-26T06:14:03.611Z,52.10
2019-01-26T06:16:44.464Z,56.73
2019-01-26T06:19:25.079Z,61.40
2019-01-26T06:22:06.095Z,53.13
2019-01-26T06:24:47.464Z,80.87
2019-01-26T06:27:29.095Z,57.80
2019-01-26T06:30:17.341Z,57.03
2019-01-26T06:32:57.918Z,57.77
2019-01-26T06:35:38.514Z,51.90
2019-01-26T06:38:19.867Z,56.47
2019-01-26T06:41:00.464Z,61.47
2019-01-26T06:43:42.026Z,57.57
2019-01-26T06:46:23.214Z,58.77
2019-01-26T06:49:03.684Z,60.67
2019-01-26T06:52:03.516Z,66.73
2019-01-26T06:54:44.950Z,60.97
2019-01-26T06:57:26.602Z,60.97
2019-01-26T07:00:08.076Z,59.00
2019-01-26T07:02:50.518Z,62.27
2019-01-26T07:08:43.913Z,73.80
2019-01-26T07:11:25.302Z,72.60
2019-01-26T07:14:05.902Z,78.57
2019-01-26T07:16:47.296Z,75.27
2019-01-26T07:22:13.916Z,79.27
2019-01-26T07:24:54.884Z,79.10
2019-01-26T07:27:36.166Z,72.63
2019-01-26T07:30:16.899Z,83.43
2019-01-26T07:38:25.738Z,82.80
2019-01-26T07:40:55.257Z,83.93
2019-01-26T07:43:44.049Z,74.17
2019-01-26T07:46:13.619Z,69.83
2019-01-26T07:49:01.901Z,69.30
2019-01-26T07:51:50.163Z,78.57
2019-01-26T07:54:30.940Z,61.90
2019-01-26T07:57:12.349Z,61.40
2019-01-26T07:59:53.915Z,68.10
2019-01-26T08:05:47.873Z,64.30
2019-01-26T08:08:27.253Z,66.20
2019-01-26T08:11:07.986Z,64.87
2019-01-26T08:13:48.852Z,62.40
2019-01-26T08:16:29.786Z,60.03
2019-01-26T08:19:11.037Z,54.20
2019-01-26T08:21:52.470Z,56.90
2019-01-26T08:24:34.041Z,51.27
2019-01-26T08:27:15.223Z,51.03
2019-01-26T08:29:55.797Z,48.60
2019-01-26T08:32:36.634Z,52.37
2019-01-26T08:35:17.365Z,48.23
2019-01-26T08:37:58.472Z,48.93
2019-01-26T08:40:39.183Z,42.90
2019-01-26T08:43:20.081Z,48.63
2019-01-26T08:45:59.544Z,40.20
2019-01-26T08:48:40.300Z,37.50
2019-01-26T08:51:22.383Z,36.00
2019-01-26T08:54:03.407Z,45.80
2019-01-26T08:56:44.691Z,44.60
2019-01-26T08:59:26.703Z,40.53
2019-01-26T09:02:26.356Z,44.17
2019-01-26T09:05:07.099Z,44.53
2019-01-26T09:07:55.514Z,49.37
2019-01-26T09:10:36.103Z,47.27
2019-01-26T09:13:18.640Z,52.03
2019-01-26T09:15:59.359Z,48.93
2019-01-26T09:18:40.078Z,54.07
2019-01-26T09:21:21.270Z,57.87
2019-01-26T09:23:50.915Z,58.33
2019-01-26T09:26:39.234Z,68.83
2019-01-26T09:29:20.402Z,70.53
2019-01-26T09:31:59.793Z,62.53
2019-01-26T09:34:40.292Z,74.57
2019-01-26T09:37:20.758Z,69.17
2019-01-26T09:40:02.113Z,75.17
2019-01-26T09:42:43.023Z,71.27
2019-01-26T09:45:24.431Z,73.93
2019-01-26T09:48:05.160Z,68.73
2019-01-26T09:50:46.595Z,67.37
2019-01-26T09:53:27.433Z,65.50
2019-01-26T09:56:08.184Z,65.27
2019-01-26T09:58:48.850Z,72.33
2019-01-26T10:01:29.916Z,58.80
2019-01-26T10:04:10.441Z,65.33
2019-01-26T10:06:51.123Z,63.57
2019-01-26T10:09:32.089Z,56.93
2019-01-26T10:12:12.823Z,54.60
2019-01-26T10:14:53.493Z,55.73
2019-01-26T10:17:34.092Z,52.07
2019-01-26T10:20:15.446Z,52.63
2019-01-26T10:22:56.005Z,50.33
2019-01-26T10:25:37.193Z,56.90
2019-01-26T10:28:18.516Z,48.73
2019-01-26T10:31:00.596Z,50.20
2019-01-26T10:33:39.943Z,50.57
2019-01-26T10:36:25.443Z,44.33
2019-01-26T10:39:26.317Z,40.83
2019-01-26T10:42:26.522Z,40.83
2019-01-26T10:45:07.233Z,37.20
2019-01-26T10:47:48.067Z,35.53
2019-01-26T10:50:28.861Z,28.80
2019-01-26T10:53:09.685Z,28.40
2019-01-26T10:55:50.402Z,35.03
2019-01-26T10:58:30.982Z,33.53
2019-01-26T11:01:19.300Z,33.37
2019-01-26T11:04:00.588Z,29.50
2019-01-26T11:06:41.041Z,30.13
2019-01-26T11:09:21.850Z,27.23
2019-01-26T11:12:02.824Z,28.67
2019-01-26T11:14:43.966Z,24.33
2019-01-26T11:17:24.892Z,21.10
2019-01-26T11:20:05.996Z,20.30
2019-01-26T11:22:47.242Z,20.07
2019-01-26T11:25:27.842Z,22.03
2019-01-26T11:28:08.501Z,16.23
2019-01-26T11:33:31.612Z,17.53
2019-01-26T11:36:12.514Z,16.53
2019-01-26T11:38:53.112Z,16.60
2019-01-26T11:44:16.642Z,19.03
2019-01-26T11:47:02.909Z,18.37
2019-01-26T11:52:39.007Z,19.60
2019-01-26T11:55:39.347Z,19.13
2019-01-26T11:58:20.503Z,17.97
2019-01-26T12:04:35.169Z,14.97
2019-01-26T12:07:17.237Z,15.03
2019-01-26T12:09:58.036Z,16.30
2019-01-26T12:12:57.790Z,16.90
2019-01-26T12:15:58.193Z,13.93
2019-01-26T12:18:39.488Z,11.43
2019-01-26T12:27:27.585Z,12.73
2019-01-26T12:30:15.837Z,15.23
2019-01-26T12:32:52.805Z,12.93
2019-01-26T12:35:22.411Z,14.27
2019-01-26T12:37:51.791Z,15.00
2019-01-26T12:40:21.298Z,16.60
2019-01-26T12:43:09.606Z,13.83
2019-01-26T12:45:50.455Z,12.70
2019-01-26T12:48:31.747Z,15.27
2019-01-26T12:51:13.127Z,11.23
2019-01-26T12:53:53.783Z,12.07
2019-01-26T12:56:34.965Z,14.87
2019-01-26T12:59:15.793Z,13.37
2019-01-26T13:01:56.621Z,12.77
2019-01-26T13:04:37.352Z,12.77
2019-01-26T13:07:17.101Z,12.70
2019-01-26T13:09:56.575Z,12.37
2019-01-26T13:12:44.839Z,11.63
2019-01-26T13:15:26.281Z,11.37
2019-01-26T13:18:09.938Z,15.70
2019-01-26T13:20:49.437Z,14.73
2019-01-26T13:23:37.773Z,11.97
2019-01-26T13:26:25.652Z,18.00
2019-01-26T13:29:05.928Z,15.77
2019-01-26T13:31:47.286Z,15.07
2019-01-26T13:34:28.690Z,11.33
2019-01-26T13:37:09.664Z,11.67
2019-01-26T13:39:58.236Z,12.27
2019-01-26T13:42:39.495Z,14.20
2019-01-26T13:45:23.836Z,10.77
2019-01-26T13:48:04.956Z,11.90
2019-01-26T13:50:46.246Z,11.63
2019-01-26T13:53:27.183Z,11.67
2019-01-26T13:56:08.442Z,11.33
2019-01-26T13:58:50.160Z,12.93
2019-01-26T14:01:31.466Z,13.27
2019-01-26T14:04:13.185Z,15.57
2019-01-26T14:06:54.606Z,13.77
2019-01-26T14:09:35.188Z,13.10
2019-01-26T14:12:16.353Z,20.03
2019-01-26T14:14:57.021Z,14.97
2019-01-26T14:17:38.453Z,11.73
2019-01-26T14:20:19.890Z,11.07
2019-01-26T14:23:01.439Z,11.87
2019-01-26T14:25:42.361Z,13.07
2019-01-26T14:28:23.023Z,10.73
2019-01-26T14:31:04.102Z,11.23
2019-01-26T14:33:44.902Z,12.27
2019-01-26T14:36:25.542Z,11.97
2019-01-26T14:41:53.888Z,9.17
2019-01-26T14:47:54.428Z,9.97
2019-01-26T14:50:35.934Z,8.97
2019-01-26T14:53:17.420Z,8.57
2019-01-26T14:55:59.261Z,8.60
2019-01-26T14:58:34.406Z,7.43
2019-01-26T15:01:38.769Z,9.77
2019-01-26T15:04:28.117Z,11.50
2019-01-26T15:07:09.808Z,8.20
2019-01-26T15:09:50.971Z,9.07
2019-01-26T15:12:32.219Z,9.83
2019-01-26T15:15:13.818Z,11.43
2019-01-26T15:17:55.096Z,11.53
2019-01-26T15:20:36.028Z,9.63
2019-01-26T15:23:16.769Z,11.30
2019-01-26T15:25:58.799Z,12.27
2019-01-26T15:28:43.001Z,11.47
2019-01-26T15:31:22.696Z,10.40
2019-01-26T15:34:04.142Z,11.53
2019-01-26T15:36:45.293Z,11.23
2019-01-26T15:39:26.048Z,12.77
2019-01-26T15:42:06.906Z,11.60
2019-01-26T15:44:49.622Z,9.00
2019-01-26T15:47:31.934Z,11.07
2019-01-26T15:50:13.414Z,11.47
2019-01-26T15:52:54.958Z,8.60
2019-01-26T15:55:35.618Z,12.20
2019-01-26T15:58:16.618Z,8.97
2019-01-26T16:00:58.143Z,14.37
2019-01-26T16:03:39.413Z,17.93
2019-01-26T16:06:20.832Z,11.03
2019-01-26T16:09:02.347Z,10.43
2019-01-26T16:11:43.766Z,9.17
2019-01-26T16:14:25.162Z,8.93
2019-01-26T16:17:05.792Z,6.77
2019-01-26T16:19:47.152Z,8.27
2019-01-26T16:22:28.465Z,6.70
2019-01-26T16:25:10.026Z,7.90
2019-01-26T16:27:52.225Z,7.50
2019-01-26T16:30:34.453Z,10.33
2019-01-26T16:33:15.258Z,12.13
2019-01-26T16:38:38.102Z,21.17
2019-01-26T16:41:19.525Z,14.10
2019-01-26T16:44:00.868Z,12.77
2019-01-26T16:46:41.715Z,14.70
2019-01-26T16:49:24.325Z,13.90
2019-01-26T16:52:05.568Z,12.07
2019-01-26T16:54:44.987Z,13.03
2019-01-26T16:57:26.169Z,14.27
2019-01-26T17:00:06.839Z,12.03
2019-01-26T17:02:48.211Z,15.03
2019-01-26T17:05:29.503Z,12.00
2019-01-26T17:08:10.179Z,12.27
2019-01-26T17:10:51.071Z,13.00
2019-01-26T17:13:32.422Z,12.53
2019-01-26T17:16:13.040Z,12.13
2019-01-26T17:18:56.471Z,11.93
2019-01-26T17:21:37.718Z,13.40
2019-01-26T17:24:19.470Z,9.97
2019-01-26T17:27:00.772Z,11.27
2019-01-26T17:29:45.180Z,12.87
2019-01-26T17:34:58.231Z,13.70
2019-01-26T17:37:46.958Z,17.30
2019-01-26T17:40:36.335Z,13.97
2019-01-26T17:43:05.941Z,12.53
2019-01-26T17:45:54.556Z,11.17
2019-01-26T17:48:42.952Z,11.83
2019-01-26T17:51:24.177Z,12.23
2019-01-26T18:00:16.542Z,14.77
2019-01-26T18:02:59.075Z,14.40
2019-01-26T18:05:39.777Z,15.70
2019-01-26T18:08:21.049Z,15.13
2019-01-26T18:11:02.002Z,15.20
2019-01-26T18:16:25.765Z,15.67
2019-01-26T18:19:07.205Z,15.97
2019-01-26T18:21:48.497Z,17.70
2019-01-26T18:24:29.348Z,16.87
2019-01-26T18:27:09.955Z,18.07
2019-01-26T18:29:51.273Z,18.83
2019-01-26T18:32:32.877Z,18.97
2019-01-26T18:35:14.209Z,18.10
2019-01-26T18:37:55.589Z,21.20
2019-01-26T18:40:37.122Z,21.23
2019-01-26T18:43:18.687Z,20.40
2019-01-26T18:45:59.925Z,18.13
2019-01-26T18:48:40.632Z,17.17
2019-01-26T18:51:22.052Z,22.23
2019-01-26T18:54:03.308Z,23.57
2019-01-26T18:56:44.488Z,19.57
2019-01-26T18:59:25.780Z,19.50
2019-01-26T19:02:07.835Z,17.93
2019-01-26T19:04:51.992Z,18.10
2019-01-26T19:07:33.567Z,19.57
2019-01-26T19:10:14.717Z,16.70
2019-01-26T19:12:56.058Z,21.30
2019-01-26T19:15:36.650Z,17.87
2019-01-26T19:18:18.772Z,14.43
2019-01-26T19:21:03.317Z,14.13
2019-01-26T19:23:42.086Z,15.00
2019-01-26T19:26:23.267Z,16.60
2019-01-26T19:29:11.723Z,12.77
2019-01-26T19:32:00.082Z,14.93
2019-01-26T19:34:41.229Z,12.57
2019-01-26T19:37:22.025Z,14.03
2019-01-26T19:40:02.808Z,14.83
2019-01-26T19:42:43.500Z,11.53
2019-01-26T19:45:25.350Z,13.27
2019-01-26T19:48:06.654Z,11.70
2019-01-26T19:50:47.667Z,14.57
2019-01-26T19:53:28.424Z,13.57
2019-01-26T19:56:09.322Z,14.03
2019-01-26T19:58:48.902Z,13.67
2019-01-26T20:01:29.680Z,13.33
2019-01-26T20:04:10.463Z,14.53
2019-01-26T20:06:52.081Z,13.07
2019-01-26T20:09:32.594Z,13.77
2019-01-26T20:12:13.235Z,13.63
2019-01-26T20:14:54.342Z,13.10
2019-01-26T20:17:35.545Z,16.50
2019-01-26T20:20:16.316Z,15.73
2019-01-26T20:22:56.967Z,14.60
2019-01-26T20:25:37.561Z,16.83
2019-01-26T20:28:18.765Z,14.60
2019-01-26T20:30:59.227Z,12.47
2019-01-26T20:33:41.003Z,9.97
2019-01-26T20:36:21.870Z,12.37
2019-01-26T20:39:02.813Z,10.13
2019-01-26T20:41:44.061Z,9.33
2019-01-26T20:44:24.701Z,13.37
2019-01-26T20:47:05.849Z,10.67
2019-01-26T20:49:46.394Z,9.80
2019-01-26T20:52:27.199Z,12.07
2019-01-26T20:55:08.441Z,9.50
2019-01-26T20:57:49.344Z,12.10
2019-01-26T21:00:29.883Z,9.67
2019-01-26T21:03:10.673Z,10.70
2019-01-26T21:05:50.549Z,15.07
2019-01-26T21:11:29.719Z,13.33
2019-01-26T21:14:10.311Z,10.20
2019-01-26T21:16:51.044Z,10.07
2019-01-26T21:19:31.953Z,10.57
2019-01-26T21:22:11.498Z,9.47
2019-01-26T21:25:00.091Z,10.57
2019-01-26T21:27:41.783Z,10.20
2019-01-26T21:30:23.073Z,8.47
2019-01-26T21:33:05.313Z,8.73
2019-01-26T21:35:46.266Z,9.70
2019-01-26T21:38:27.283Z,8.63
2019-01-26T21:41:08.854Z,8.83
2019-01-26T21:43:49.854Z,10.67
2019-01-26T21:46:30.730Z,11.40
2019-01-26T21:49:11.448Z,9.00
2019-01-26T21:51:50.923Z,13.50
2019-01-26T21:54:31.700Z,11.47
2019-01-26T21:57:13.080Z,10.03
2019-01-26T21:59:53.708Z,16.63
2019-01-26T22:05:18.971Z,9.87
2019-01-26T22:08:00.213Z,10.40
2019-01-26T22:10:40.902Z,8.87
2019-01-26T22:13:21.512Z,9.17
2019-01-26T22:16:03.816Z,8.27
2019-01-26T22:18:44.683Z,8.53
2019-01-26T22:21:26.270Z,10.07
2019-01-26T22:24:06.976Z,9.57
2019-01-26T22:26:48.554Z,10.43
2019-01-26T22:29:31.369Z,8.70
2019-01-26T22:32:12.159Z,8.73
2019-01-26T22:38:06.074Z,11.07
2019-01-26T22:40:46.724Z,9.53
2019-01-26T22:43:16.134Z,10.00
2019-01-26T22:45:45.699Z,9.33
2019-01-26T22:48:34.067Z,9.60
2019-01-26T22:51:22.385Z,9.90
2019-01-26T22:54:03.301Z,9.73
2019-01-26T22:56:44.625Z,9.93
2019-01-26T22:59:25.235Z,9.10
2019-01-26T23:02:05.115Z,9.97
2019-01-26T23:04:46.329Z,10.40
2019-01-26T23:07:36.293Z,10.30
2019-01-26T23:10:16.998Z,9.57
2019-01-26T23:12:59.549Z,12.07
2019-01-26T23:15:40.903Z,7.60
2019-01-26T23:18:22.399Z,10.63
2019-01-26T23:21:03.546Z,8.87
2019-01-26T23:23:44.616Z,8.83
2019-01-26T23:26:25.233Z,8.37
2019-01-26T23:29:06.347Z,9.43
2019-01-26T23:31:47.736Z,8.53
2019-01-26T23:34:29.138Z,10.10
2019-01-26T23:37:09.604Z,6.87
2019-01-26T23:39:51.447Z,7.53
2019-01-26T23:42:32.668Z,7.37
2019-01-26T23:45:13.642Z,6.90
2019-01-26T23:47:54.750Z,7.10
2019-01-26T23:50:36.086Z,7.50
2019-01-26T23:53:18.176Z,8.97
2019-01-26T23:55:59.045Z,8.50
2019-01-26T23:58:40.361Z,7.07
